createdAt,value
2019-03-21T00:01:24.996Z,102304.94
2019-03-21T00:03:56.785Z,102301.84
2019-03-21T00:06:25.208Z,102304.16
2019-03-21T00:08:53.627Z,102300.95
2019-03-21T00:11:56.860Z,102299.23
2019-03-21T00:14:43.302Z,102294.63
2019-03-21T00:17:26.865Z,102292.41
2019-03-21T00:19:55.343Z,102291.61
2019-03-21T00:22:23.732Z,102291.25
2019-03-21T00:24:52.162Z,102294.56
2019-03-21T00:27:20.553Z,102291.84
2019-03-21T00:29:49.010Z,102290.00
2019-03-21T00:32:17.385Z,102290.59
2019-03-21T00:34:45.816Z,102292.94
2019-03-21T00:37:14.233Z,102290.22
2019-03-21T00:39:42.651Z,102288.86
2019-03-21T00:42:11.085Z,102289.81
2019-03-21T00:44:39.561Z,102284.37
2019-03-21T00:47:08.003Z,102285.36
2019-03-21T00:49:36.410Z,102284.88
2019-03-21T00:52:04.846Z,102288.09
2019-03-21T00:54:33.250Z,102292.28
2019-03-21T00:57:01.663Z,102287.72
2019-03-21T00:59:30.097Z,102293.17
2019-03-21T01:01:58.521Z,102292.66
2019-03-21T01:04:28.099Z,102290.44
2019-03-21T01:06:56.507Z,102291.41
2019-03-21T01:09:24.933Z,102293.76
2019-03-21T01:11:53.342Z,102283.63
2019-03-21T01:14:29.685Z,102283.23
2019-03-21T01:16:51.969Z,102278.78
2019-03-21T01:19:20.392Z,102277.89
2019-03-21T01:21:48.801Z,102276.64
2019-03-21T01:24:17.253Z,102277.64
2019-03-21T01:26:45.674Z,102272.19
2019-03-21T01:29:14.117Z,102272.19
2019-03-21T01:31:42.621Z,102270.83
2019-03-21T01:34:11.057Z,102268.10
2019-03-21T01:36:39.498Z,102278.01
2019-03-21T01:39:07.921Z,102275.39
2019-03-21T01:41:36.355Z,102268.70
2019-03-21T01:44:04.915Z,102277.86
2019-03-21T01:46:33.357Z,102271.30
2019-03-21T01:49:01.793Z,102271.42
2019-03-21T01:51:30.212Z,102274.14
2019-03-21T01:53:58.644Z,102276.98
2019-03-21T01:56:28.921Z,102278.70
2019-03-21T01:58:57.325Z,102274.63
2019-03-21T02:01:25.749Z,102279.59
2019-03-21T02:03:54.164Z,102282.80
2019-03-21T02:06:22.961Z,102276.50
2019-03-21T02:08:51.389Z,102276.39
2019-03-21T02:11:19.800Z,102272.01
2019-03-21T02:13:48.236Z,102272.01
2019-03-21T02:16:16.658Z,102269.80
2019-03-21T02:18:45.082Z,102265.20
2019-03-21T02:21:13.504Z,102262.88
2019-03-21T02:23:41.941Z,102261.52
2019-03-21T02:26:10.345Z,102261.00
2019-03-21T02:28:38.761Z,102256.55
2019-03-21T02:31:07.191Z,102262.48
2019-03-21T02:33:38.811Z,102259.02
2019-03-21T02:36:09.881Z,102252.31
2019-03-21T02:38:38.308Z,102257.77
2019-03-21T02:41:15.472Z,102257.25
2019-03-21T02:43:43.869Z,102262.70
2019-03-21T02:46:12.291Z,102258.61
2019-03-21T02:48:40.733Z,102262.33
2019-03-21T02:51:09.147Z,102262.33
2019-03-21T02:53:37.589Z,102262.44
2019-03-21T02:56:11.662Z,102260.20
2019-03-21T02:58:40.088Z,102264.17
2019-03-21T03:01:08.503Z,102260.20
2019-03-21T03:03:36.956Z,102256.52
2019-03-21T03:06:05.442Z,102261.45
2019-03-21T03:08:33.852Z,102260.59
2019-03-21T03:11:11.159Z,102257.47
2019-03-21T03:13:40.530Z,102261.96
2019-03-21T03:16:08.958Z,102259.72
2019-03-21T03:18:37.391Z,102264.28
2019-03-21T03:21:05.812Z,102272.09
2019-03-21T03:23:34.237Z,102267.23
2019-03-21T03:26:02.663Z,102265.50
2019-03-21T03:28:42.898Z,102267.23
2019-03-21T03:31:11.339Z,102266.27
2019-03-21T03:33:39.729Z,102264.50
2019-03-21T03:36:08.159Z,102263.14
2019-03-21T03:38:36.568Z,102268.59
2019-03-21T03:41:13.560Z,102269.00
2019-03-21T03:43:42.141Z,102279.00
2019-03-21T03:46:10.562Z,102280.84
2019-03-21T03:48:39.320Z,102280.84
2019-03-21T03:51:07.751Z,102280.48
2019-03-21T03:53:36.193Z,102280.11
2019-03-21T03:56:04.857Z,102280.11
2019-03-21T03:58:36.758Z,102279.70
2019-03-21T04:01:05.499Z,102284.78
2019-03-21T04:03:33.929Z,102279.81
2019-03-21T04:06:02.335Z,102271.76
2019-03-21T04:08:30.849Z,102273.13
2019-03-21T04:10:59.411Z,102273.13
2019-03-21T04:13:27.850Z,102273.13
2019-03-21T04:15:56.320Z,102269.52
2019-03-21T04:18:25.724Z,102272.75
2019-03-21T04:21:03.418Z,102274.59
2019-03-21T04:23:31.887Z,102281.14
2019-03-21T04:26:15.733Z,102274.92
2019-03-21T04:28:44.392Z,102270.84
2019-03-21T04:31:12.923Z,102270.73
2019-03-21T04:33:42.871Z,102266.27
2019-03-21T04:36:11.319Z,102269.84
2019-03-21T04:38:39.758Z,102263.44
2019-03-21T04:41:08.568Z,102269.37
2019-03-21T04:43:37.003Z,102269.84
2019-03-21T04:46:05.511Z,102264.51
2019-03-21T04:48:33.908Z,102274.92
2019-03-21T04:51:02.344Z,102267.34
2019-03-21T04:53:30.837Z,102271.54
2019-03-21T04:55:59.268Z,102275.52
2019-03-21T04:58:27.687Z,102284.09
2019-03-21T05:00:57.858Z,102281.36
2019-03-21T05:03:29.008Z,102276.39
2019-03-21T05:05:57.449Z,102276.51
2019-03-21T05:08:25.868Z,102274.66
2019-03-21T05:10:54.276Z,102283.31
2019-03-21T05:13:22.695Z,102284.30
2019-03-21T05:15:52.540Z,102282.95
2019-03-21T05:18:29.310Z,102289.23
2019-03-21T05:20:58.286Z,102289.64
2019-03-21T05:23:26.703Z,102295.94
2019-03-21T05:25:55.189Z,102290.48
2019-03-21T05:28:23.611Z,102289.12
2019-03-21T05:31:07.558Z,102293.62
2019-03-21T05:33:36.120Z,102285.05
2019-03-21T05:36:04.925Z,102291.48
2019-03-21T05:38:33.861Z,102292.84
2019-03-21T05:41:02.293Z,102291.48
2019-03-21T05:43:42.683Z,102295.67
2019-03-21T05:46:11.109Z,102295.56
2019-03-21T05:48:39.637Z,102292.84
2019-03-21T05:51:08.054Z,102293.32
2019-03-21T05:53:36.471Z,102297.30
2019-03-21T05:56:04.914Z,102306.09
2019-03-21T05:58:33.517Z,102311.53
2019-03-21T06:01:12.937Z,102308.41
2019-03-21T06:03:46.937Z,102308.30
2019-03-21T06:06:18.433Z,102315.00
2019-03-21T06:08:46.862Z,102312.27
2019-03-21T06:11:15.277Z,102310.91
2019-03-21T06:13:43.721Z,102312.67
2019-03-21T06:16:12.329Z,102313.53
2019-03-21T06:18:49.587Z,102312.45
2019-03-21T06:21:32.943Z,102313.20
2019-03-21T06:24:23.961Z,102317.58
2019-03-21T06:27:14.982Z,102316.88
2019-03-21T06:29:43.593Z,102320.23
2019-03-21T06:32:13.118Z,102310.37
2019-03-21T06:34:41.678Z,102311.40
2019-03-21T06:37:10.085Z,102319.89
2019-03-21T06:39:38.509Z,102313.74
2019-03-21T06:42:06.949Z,102317.02
2019-03-21T06:44:35.436Z,102322.53
2019-03-21T06:47:03.879Z,102319.47
2019-03-21T06:49:32.285Z,102318.66
2019-03-21T06:52:00.738Z,102323.28
2019-03-21T06:54:29.171Z,102322.18
2019-03-21T06:56:57.607Z,102326.33
2019-03-21T06:59:26.029Z,102329.56
2019-03-21T07:01:54.465Z,102327.27
2019-03-21T07:04:22.873Z,102324.97
2019-03-21T07:06:51.319Z,102329.84
2019-03-21T07:09:19.721Z,102325.17
2019-03-21T07:11:48.175Z,102334.14
2019-03-21T07:14:16.587Z,102338.91
2019-03-21T07:16:45.000Z,102334.30
2019-03-21T07:19:13.433Z,102337.69
2019-03-21T07:21:41.862Z,102338.47
2019-03-21T07:24:10.288Z,102335.26
2019-03-21T07:26:38.705Z,102329.97
2019-03-21T07:29:07.153Z,102329.38
2019-03-21T07:31:35.559Z,102329.53
2019-03-21T07:34:04.156Z,102332.16
2019-03-21T07:36:32.609Z,102336.52
2019-03-21T07:39:01.032Z,102332.70
2019-03-21T07:41:29.446Z,102338.47
2019-03-21T07:43:59.732Z,102335.25
2019-03-21T07:46:28.151Z,102344.08
2019-03-21T07:48:56.596Z,102338.12
2019-03-21T07:51:25.031Z,102344.86
2019-03-21T07:53:53.450Z,102333.42
2019-03-21T07:56:21.879Z,102341.88
2019-03-21T07:58:50.315Z,102336.89
2019-03-21T08:01:18.741Z,102338.27
2019-03-21T08:03:47.206Z,102340.11
2019-03-21T08:06:15.613Z,102345.23
2019-03-21T08:08:44.039Z,102342.36
2019-03-21T08:11:12.469Z,102339.77
2019-03-21T08:13:40.875Z,102340.66
2019-03-21T08:16:09.311Z,102334.28
2019-03-21T08:18:37.762Z,102330.67
2019-03-21T08:21:06.189Z,102327.20
2019-03-21T08:23:34.628Z,102330.42
2019-03-21T08:26:03.059Z,102327.17
2019-03-21T08:28:31.511Z,102326.79
2019-03-21T08:31:08.954Z,102332.10
2019-03-21T08:33:37.430Z,102323.50
2019-03-21T08:36:05.893Z,102330.83
2019-03-21T08:38:34.328Z,102325.59
2019-03-21T08:41:02.774Z,102325.19
2019-03-21T08:43:31.173Z,102327.57
2019-03-21T08:45:59.596Z,102326.03
2019-03-21T08:48:28.001Z,102326.69
2019-03-21T08:51:07.395Z,102318.95
2019-03-21T08:53:26.637Z,102323.38
2019-03-21T08:55:55.066Z,102321.12
2019-03-21T08:58:23.492Z,102323.33
2019-03-21T09:00:51.905Z,102322.44
2019-03-21T09:03:20.339Z,102314.17
2019-03-21T09:05:48.745Z,102315.00
2019-03-21T09:08:17.185Z,102308.00
2019-03-21T09:10:45.627Z,102311.66
2019-03-21T09:13:14.075Z,102310.62
2019-03-21T09:15:42.516Z,102303.60
2019-03-21T09:18:10.913Z,102302.42
2019-03-21T09:20:39.343Z,102303.00
2019-03-21T09:23:08.635Z,102303.30
2019-03-21T09:25:37.058Z,102298.20
2019-03-21T09:28:05.466Z,102300.73
2019-03-21T09:30:33.900Z,102305.17
2019-03-21T09:33:02.325Z,102303.66
2019-03-21T09:35:30.733Z,102300.50
2019-03-21T09:37:59.174Z,102301.70
2019-03-21T09:40:27.590Z,102296.63
2019-03-21T09:42:56.002Z,102300.33
2019-03-21T09:45:24.452Z,102298.56
2019-03-21T09:47:52.896Z,102306.12
2019-03-21T09:50:29.796Z,102299.19
2019-03-21T09:52:58.372Z,102294.35
2019-03-21T09:55:26.804Z,102304.41
2019-03-21T09:57:55.285Z,102301.69
2019-03-21T10:00:31.776Z,102301.39
2019-03-21T10:03:00.236Z,102292.58
2019-03-21T10:05:28.992Z,102289.55
2019-03-21T10:07:59.592Z,102293.23
2019-03-21T10:10:32.626Z,102290.92
2019-03-21T10:13:01.123Z,102287.16
2019-03-21T10:15:29.887Z,102289.91
2019-03-21T10:17:58.484Z,102277.72
2019-03-21T10:20:26.988Z,102280.53
2019-03-21T10:22:55.406Z,102273.25
2019-03-21T10:25:26.493Z,102270.61
2019-03-21T10:27:53.994Z,102271.00
2019-03-21T10:30:36.774Z,102263.25
2019-03-21T10:33:09.924Z,102262.45
2019-03-21T10:35:38.436Z,102263.00
2019-03-21T10:38:07.405Z,102255.19
2019-03-21T10:40:35.992Z,102251.16
2019-03-21T10:43:05.177Z,102251.55
2019-03-21T10:45:33.661Z,102244.95
2019-03-21T10:48:02.097Z,102250.00
2019-03-21T10:50:37.852Z,102249.70
2019-03-21T10:53:07.423Z,102248.11
2019-03-21T10:55:36.210Z,102248.38
2019-03-21T10:58:05.571Z,102235.55
2019-03-21T11:00:34.006Z,102242.47
2019-03-21T11:03:02.426Z,102231.88
2019-03-21T11:05:30.838Z,102234.70
2019-03-21T11:07:59.280Z,102230.91
2019-03-21T11:10:27.694Z,102231.59
2019-03-21T11:12:56.130Z,102236.36
2019-03-21T11:15:24.541Z,102233.45
2019-03-21T11:17:53.837Z,102230.48
2019-03-21T11:20:34.084Z,102228.39
2019-03-21T11:23:03.247Z,102223.42
2019-03-21T11:25:31.650Z,102222.77
2019-03-21T11:28:00.070Z,102214.95
2019-03-21T11:30:33.381Z,102212.28
2019-03-21T11:33:02.002Z,102202.24
2019-03-21T11:35:31.253Z,102199.05
2019-03-21T11:37:59.770Z,102195.20
2019-03-21T11:40:28.184Z,102189.63
2019-03-21T11:42:56.970Z,102187.41
2019-03-21T11:45:25.401Z,102186.63
2019-03-21T11:47:53.887Z,102188.56
2019-03-21T11:50:22.312Z,102176.80
2019-03-21T11:52:50.714Z,102180.56
2019-03-21T11:55:19.261Z,102174.42
2019-03-21T11:57:47.733Z,102172.33
2019-03-21T12:00:16.401Z,102173.67
2019-03-21T12:02:44.835Z,102166.27
2019-03-21T12:05:13.319Z,102169.39
2019-03-21T12:07:41.768Z,102161.22
2019-03-21T12:10:12.190Z,102154.69
2019-03-21T12:12:40.694Z,102153.52
2019-03-21T12:15:10.859Z,102159.02
2019-03-21T12:17:39.266Z,102149.97
2019-03-21T12:20:13.358Z,102143.78
2019-03-21T12:22:41.775Z,102138.52
2019-03-21T12:25:11.248Z,102137.14
2019-03-21T12:27:39.751Z,102133.13
2019-03-21T12:30:11.189Z,102130.58
2019-03-21T12:32:39.598Z,102119.05
2019-03-21T12:35:08.670Z,102114.13
2019-03-21T12:37:37.099Z,102114.35
2019-03-21T12:40:07.851Z,102112.25
2019-03-21T12:42:36.287Z,102109.24
2019-03-21T12:45:07.983Z,102107.06
2019-03-21T12:47:36.388Z,102101.41
2019-03-21T12:50:07.537Z,102095.19
2019-03-21T12:52:41.461Z,102093.97
2019-03-21T12:55:07.527Z,102090.53
2019-03-21T12:57:35.985Z,102088.13
2019-03-21T13:00:10.103Z,102089.09
2019-03-21T13:02:38.504Z,102085.50
2019-03-21T13:05:08.971Z,102075.16
2019-03-21T13:07:37.469Z,102070.53
2019-03-21T13:10:06.933Z,102071.98
2019-03-21T13:12:35.345Z,102062.48
2019-03-21T13:15:05.543Z,102059.31
2019-03-21T13:17:33.964Z,102060.96
2019-03-21T13:20:02.395Z,102062.48
2019-03-21T13:22:30.811Z,102051.69
2019-03-21T13:24:59.274Z,102045.27
2019-03-21T13:27:27.719Z,102046.14
2019-03-21T13:29:56.172Z,102041.83
2019-03-21T13:32:24.579Z,102039.11
2019-03-21T13:34:53.001Z,102033.14
2019-03-21T13:37:21.417Z,102034.63
2019-03-21T13:39:49.851Z,102023.78
2019-03-21T13:42:18.271Z,102023.44
2019-03-21T13:44:46.709Z,102015.52
2019-03-21T13:47:15.129Z,102014.14
2019-03-21T13:49:43.564Z,102014.88
2019-03-21T13:52:11.977Z,102008.01
2019-03-21T13:54:40.415Z,102003.84
2019-03-21T13:57:08.835Z,102004.56
2019-03-21T13:59:37.250Z,101991.16
2019-03-21T14:02:05.850Z,101997.52
2019-03-21T14:04:34.258Z,101993.98
2019-03-21T14:07:02.663Z,101999.37
2019-03-21T14:09:31.114Z,101993.83
2019-03-21T14:11:59.544Z,101982.41
2019-03-21T14:14:28.140Z,101975.85
2019-03-21T14:16:56.565Z,101976.44
2019-03-21T14:19:25.016Z,101974.62
2019-03-21T14:21:53.427Z,101972.77
2019-03-21T14:24:21.971Z,101971.58
2019-03-21T14:26:50.387Z,101966.03
2019-03-21T14:29:18.805Z,101961.86
2019-03-21T14:31:47.246Z,101954.77
2019-03-21T14:34:15.653Z,101953.91
2019-03-21T14:36:44.119Z,101953.91
2019-03-21T14:39:12.589Z,101949.55
2019-03-21T14:41:40.945Z,101946.95
2019-03-21T14:44:09.400Z,101944.36
2019-03-21T14:46:37.810Z,101941.06
2019-03-21T14:49:06.219Z,101944.89
2019-03-21T14:51:34.675Z,101942.54
2019-03-21T14:54:03.076Z,101930.25
2019-03-21T14:56:31.474Z,101934.02
2019-03-21T14:58:59.908Z,101931.17
2019-03-21T15:01:28.337Z,101932.47
2019-03-21T15:03:56.840Z,101932.61
2019-03-21T15:06:25.290Z,101930.16
2019-03-21T15:08:53.704Z,101928.78
2019-03-21T15:11:22.190Z,101925.17
2019-03-21T15:13:50.631Z,101920.47
2019-03-21T15:16:19.079Z,101926.82
2019-03-21T15:18:47.486Z,101924.72
2019-03-21T15:21:15.923Z,101919.03
2019-03-21T15:23:44.379Z,101917.34
2019-03-21T15:26:12.821Z,101917.13
2019-03-21T15:28:41.239Z,101919.34
2019-03-21T15:31:09.676Z,101921.09
2019-03-21T15:33:38.097Z,101912.01
2019-03-21T15:36:06.530Z,101922.22
2019-03-21T15:38:34.941Z,101920.98
2019-03-21T15:41:03.412Z,101920.14
2019-03-21T15:43:31.869Z,101923.38
2019-03-21T15:46:00.293Z,101916.19
2019-03-21T15:48:28.725Z,101913.30
2019-03-21T15:51:04.535Z,101916.53
2019-03-21T15:53:27.301Z,101917.16
2019-03-21T15:55:55.705Z,101916.08
2019-03-21T15:58:24.144Z,101909.02
2019-03-21T16:00:52.563Z,101910.03
2019-03-21T16:03:21.020Z,101910.67
2019-03-21T16:05:49.448Z,101902.95
2019-03-21T16:08:17.884Z,101905.69
2019-03-21T16:10:46.316Z,101906.70
2019-03-21T16:13:14.726Z,101896.25
2019-03-21T16:15:43.176Z,101903.09
2019-03-21T16:18:11.600Z,101899.13
2019-03-21T16:20:40.020Z,101898.91
2019-03-21T16:23:08.477Z,101899.61
2019-03-21T16:25:37.054Z,101893.44
2019-03-21T16:28:05.501Z,101896.52
2019-03-21T16:30:33.928Z,101902.14
2019-03-21T16:33:02.346Z,101907.39
2019-03-21T16:35:30.770Z,101906.52
2019-03-21T16:37:59.180Z,101903.92
2019-03-21T16:40:27.588Z,101906.80
2019-03-21T16:42:56.029Z,101910.02
2019-03-21T16:45:24.443Z,101910.89
2019-03-21T16:47:52.894Z,101906.58
2019-03-21T16:50:21.297Z,101906.44
2019-03-21T16:52:49.746Z,101910.02
2019-03-21T16:55:18.142Z,101911.52
2019-03-21T16:57:46.598Z,101910.81
2019-03-21T17:00:17.928Z,101910.95
2019-03-21T17:02:47.412Z,101914.39
2019-03-21T17:05:15.920Z,101904.82
2019-03-21T17:07:44.337Z,101912.33
2019-03-21T17:10:15.253Z,101916.17
2019-03-21T17:12:43.753Z,101920.66
2019-03-21T17:15:13.166Z,101919.92
2019-03-21T17:17:41.557Z,101919.92
2019-03-21T17:20:11.505Z,101928.27
2019-03-21T17:22:39.940Z,101927.04
2019-03-21T17:25:08.876Z,101931.28
2019-03-21T17:27:37.315Z,101926.65
2019-03-21T17:30:16.565Z,101933.62
2019-03-21T17:32:44.984Z,101932.49
2019-03-21T17:35:13.747Z,101934.87
2019-03-21T17:37:42.254Z,101935.50
2019-03-21T17:40:13.732Z,101938.02
2019-03-21T17:42:42.173Z,101948.08
2019-03-21T17:45:18.677Z,101946.84
2019-03-21T17:47:47.445Z,101951.08
2019-03-21T17:50:18.134Z,101949.36
2019-03-21T17:52:46.838Z,101946.90
2019-03-21T17:55:15.408Z,101950.25
2019-03-21T17:57:43.871Z,101954.14
2019-03-21T18:00:19.594Z,101954.77
2019-03-21T18:02:48.280Z,101952.78
2019-03-21T18:05:16.693Z,101955.43
2019-03-21T18:07:45.117Z,101959.66
2019-03-21T18:10:33.856Z,101954.47
2019-03-21T18:13:02.805Z,101959.67
2019-03-21T18:15:31.518Z,101958.09
2019-03-21T18:18:00.128Z,101956.11
2019-03-21T18:20:28.532Z,101961.22
2019-03-21T18:22:56.959Z,101967.31
2019-03-21T18:25:25.419Z,101961.13
2019-03-21T18:27:54.240Z,101966.83
2019-03-21T18:30:22.758Z,101964.23
2019-03-21T18:32:51.246Z,101972.95
2019-03-21T18:35:20.091Z,101971.33
2019-03-21T18:37:48.520Z,101973.34
2019-03-21T18:40:17.014Z,101977.05
2019-03-21T18:42:45.472Z,101974.45
2019-03-21T18:45:15.625Z,101978.19
2019-03-21T18:47:44.969Z,101982.91
2019-03-21T18:50:15.767Z,101983.92
2019-03-21T18:52:44.259Z,101988.14
2019-03-21T18:55:12.948Z,101992.37
2019-03-21T18:57:41.534Z,101987.41
2019-03-21T19:00:15.948Z,101988.54
2019-03-21T19:02:44.353Z,101994.98
2019-03-21T19:05:13.041Z,101991.89
2019-03-21T19:07:41.461Z,101992.02
2019-03-21T19:10:12.570Z,101993.03
2019-03-21T19:12:41.024Z,101992.15
2019-03-21T19:15:11.677Z,101990.88
2019-03-21T19:17:40.107Z,101995.98
2019-03-21T19:20:11.461Z,101993.38
2019-03-21T19:22:39.906Z,101998.84
2019-03-21T19:25:17.804Z,101998.09
2019-03-21T19:30:08.377Z,101999.69
2019-03-21T19:32:36.808Z,101995.63
2019-03-21T19:35:05.962Z,101990.16
2019-03-21T19:37:35.069Z,101985.06
2019-03-21T19:40:08.340Z,101985.58
2019-03-21T19:42:37.109Z,101989.55
2019-03-21T19:45:08.769Z,101989.16
2019-03-21T19:47:37.212Z,101988.18
2019-03-21T19:50:11.787Z,101988.41
2019-03-21T19:52:40.239Z,101998.72
2019-03-21T19:55:09.305Z,101988.54
2019-03-21T19:57:37.903Z,101992.89
2019-03-21T20:00:09.885Z,101990.88
2019-03-21T20:02:38.418Z,101991.01
2019-03-21T20:05:08.555Z,101988.28
2019-03-21T20:07:37.312Z,101978.72
2019-03-21T20:10:10.553Z,101991.76
2019-03-21T20:12:39.001Z,101991.23
2019-03-21T20:15:12.420Z,101992.47
2019-03-21T20:17:40.874Z,101993.22
2019-03-21T20:20:12.563Z,101994.94
2019-03-21T20:22:41.161Z,102000.80
2019-03-21T20:25:09.944Z,101998.06
2019-03-21T20:27:38.358Z,101993.58
2019-03-21T20:30:09.855Z,101994.94
2019-03-21T20:32:38.287Z,101987.75
2019-03-21T20:35:07.859Z,101990.48
2019-03-21T20:37:36.355Z,101988.50
2019-03-21T20:40:08.105Z,101993.58
2019-03-21T20:42:36.555Z,101998.20
2019-03-21T20:45:06.901Z,101993.84
2019-03-21T20:47:35.360Z,102003.92
2019-03-21T20:50:04.737Z,101997.09
2019-03-21T20:52:33.183Z,101991.98
2019-03-21T20:55:01.633Z,101995.20
2019-03-21T20:57:30.157Z,101995.34
2019-03-21T20:59:58.598Z,101982.33
2019-03-21T21:02:27.103Z,101985.67
2019-03-21T21:04:55.517Z,101991.27
2019-03-21T21:07:23.961Z,101991.14
2019-03-21T21:09:52.481Z,101990.75
2019-03-21T21:12:20.909Z,101992.25
2019-03-21T21:14:49.373Z,101987.44
2019-03-21T21:17:17.800Z,101991.14
2019-03-21T21:19:46.242Z,101992.50
